Time;durP1;ratioP1;P1;durP2;ratioP2;P2;SDS_P1;SDS_P2;PMS_P1;PMS_P2;Temp;Humidity;BMP_temperature;BMP_pressure;BME280_temperature;BME280_humidity;BME280_pressure;Samples;Min_cycle;Max_cycle;Signal;HPM_P1;HPM_P2
2023/06/23 00:00:27;;;;;;;;;;;22.80;66.30;;;22.02;59.21;99334.03;10206494;28;834;-67
2023/06/23 00:05:23;;;;;;;;;;;22.80;66.20;;;22.02;59.29;99342.00;10206887;28;1066;-67
2023/06/23 00:10:19;;;;;;;;;;;22.80;66.30;;;22.02;59.30;99357.06;10206102;28;875;-67
2023/06/23 00:15:14;;;;;;;;;;;22.80;66.30;;;22.01;59.13;99368.66;10206135;28;1963;-67
2023/06/23 00:20:13;;;;;;;;;;;22.70;66.20;;;22.01;59.12;99396.03;10206755;28;768;-67
2023/06/23 00:25:12;;;;;;;;;;;22.70;66.10;;;21.99;59.07;99397.94;10205471;28;856;-67
2023/06/23 00:30:07;;;;;;;;;;;22.70;66.00;;;21.98;59.14;99433.41;10206186;28;921;-67
2023/06/23 00:35:03;;;;;;;;;;;22.70;66.00;;;21.98;59.17;99467.91;10206018;28;1910;-67
2023/06/23 00:39:58;;;;;;;;;;;22.70;65.90;;;21.97;58.81;99476.78;10205126;28;805;-67
2023/06/23 00:44:54;;;;;;;;;;;22.70;65.90;;;21.96;59.00;99493.69;10204342;28;906;-67
2023/06/23 00:49:49;;;;;;;;;;;22.70;65.90;;;21.94;59.02;99524.75;10205437;28;856;-67
2023/06/23 00:54:44;;;;;;;;;;;22.70;65.90;;;21.94;58.73;99531.88;10204044;28;874;-67
2023/06/23 00:59:40;;;;;;;;;;;22.70;65.60;;;21.92;58.74;99545.22;10204961;28;1898;-68
2023/06/23 01:04:35;;;;;;;;;;;22.70;65.80;;;21.91;58.71;99543.53;10203742;28;901;-67
2023/06/23 01:09:31;;;;;;;;;;;22.70;65.70;;;21.91;58.53;99558.63;10204810;28;883;-67
2023/06/23 01:14:26;;;;;;;;;;;22.70;65.80;;;21.89;58.50;99558.69;10204340;28;805;-67
2023/06/23 01:19:22;;;;;;;;;;;22.60;65.40;;;21.88;58.64;99575.59;10203916;28;1969;-67
2023/06/23 01:24:17;;;;;;;;;;;22.60;65.50;;;21.87;58.57;99595.94;10203758;28;943;-67
2023/06/23 01:29:13;;;;;;;;;;;22.60;65.30;;;21.86;58.53;99598.72;10208445;28;941;-67
2023/06/23 01:34:08;;;;;;;;;;;22.60;65.30;;;21.86;58.24;99609.31;10211806;28;1141;-67
2023/06/23 01:39:03;;;;;;;;;;;22.60;65.30;;;21.84;58.53;99638.59;10212352;28;1915;-67
2023/06/23 01:43:59;;;;;;;;;;;22.60;65.40;;;21.85;58.37;99634.13;10212231;28;810;-67
2023/06/23 01:48:54;;;;;;;;;;;22.60;65.10;;;21.83;58.36;99647.50;10211538;28;775;-67
2023/06/23 01:53:50;;;;;;;;;;;22.60;65.30;;;21.84;58.53;99664.28;10211913;28;845;-67
2023/06/23 01:58:45;;;;;;;;;;;22.60;65.40;;;21.83;58.44;99689.13;10210501;28;1906;-67
2023/06/23 02:03:41;;;;;;;;;;;22.60;65.40;;;21.81;58.28;99697.16;10210877;28;974;-67
2023/06/23 02:08:36;;;;;;;;;;;22.60;65.40;;;21.83;58.35;99697.06;10210698;28;786;-67
2023/06/23 02:13:31;;;;;;;;;;;22.60;65.30;;;21.82;58.47;99703.31;10211185;28;869;-67
2023/06/23 02:18:27;;;;;;;;;;;22.60;65.30;;;21.80;58.30;99711.38;10210922;28;1960;-67
2023/06/23 02:23:23;;;;;;;;;;;22.50;65.10;;;21.81;58.27;99722.84;10210232;28;874;-67
2023/06/23 02:28:18;;;;;;;;;;;22.50;65.10;;;21.80;58.26;99732.59;10210626;28;1674;-67
2023/06/23 02:33:14;;;;;;;;;;;22.50;65.00;;;21.79;58.22;99741.50;10209351;28;1311;-67
2023/06/23 02:38:09;;;;;;;;;;;22.50;65.00;;;21.80;58.20;99739.72;10209375;28;1975;-67
2023/06/23 02:43:05;;;;;;;;;;;22.50;64.90;;;21.80;58.23;99755.63;10209464;28;795;-67
2023/06/23 02:48:00;;;;;;;;;;;22.50;65.10;;;21.79;58.27;99767.19;10209775;28;806;-67
2023/06/23 02:52:56;;;;;;;;;;;22.50;65.10;;;21.77;58.43;99775.25;10209107;28;803;-67
2023/06/23 02:57:52;;;;;;;;;;;22.50;65.20;;;21.78;58.44;99781.41;10209173;28;1906;-67
2023/06/23 03:02:47;;;;;;;;;;;22.40;65.10;;;21.77;58.33;99785.88;10209156;28;1038;-67
2023/06/23 03:07:43;;;;;;;;;;;22.40;65.10;;;21.76;58.39;99801.84;10209382;28;796;-67
2023/06/23 03:12:38;;;;;;;;;;;22.40;65.00;;;21.76;58.37;99807.16;10207923;28;822;-67
2023/06/23 03:17:33;;;;;;;;;;;22.40;64.90;;;21.75;58.39;99819.59;10208118;28;1975;-67
2023/06/23 03:22:29;;;;;;;;;;;22.40;64.90;;;21.74;58.48;99819.66;10208029;28;833;-67
2023/06/23 03:27:24;;;;;;;;;;;22.40;64.90;;;21.73;58.36;99831.22;10208479;28;909;-67
2023/06/23 03:32:20;;;;;;;;;;;22.40;64.90;;;21.72;58.28;99825.06;10208144;28;1422;-67
2023/06/23 03:37:15;;;;;;;;;;;22.40;65.00;;;21.71;58.38;99836.59;10206776;28;1976;-67
2023/06/23 03:42:10;;;;;;;;;;;22.40;64.90;;;21.70;58.30;99849.97;10207308;28;818;-67
2023/06/23 03:47:06;;;;;;;;;;;22.40;65.00;;;21.70;58.34;99871.22;10206960;28;950;-67
2023/06/23 03:52:01;;;;;;;;;;;22.30;65.00;;;21.67;58.49;99878.38;10206022;28;874;-67
2023/06/23 03:56:56;;;;;;;;;;;22.30;64.90;;;21.69;58.28;99893.34;10207236;28;1891;-67
2023/06/23 04:01:52;;;;;;;;;;;22.30;65.20;;;21.67;58.56;99907.56;10206403;28;915;-67
2023/06/23 04:06:47;;;;;;;;;;;22.30;65.30;;;21.67;58.54;99901.41;10206300;28;814;-67
2023/06/23 04:11:43;;;;;;;;;;;22.30;65.30;;;21.66;58.27;99912.94;10206667;28;829;-67
2023/06/23 04:16:40;;;;;;;;;;;22.30;65.50;;;21.66;58.31;99918.25;10205878;28;1910;-67
2023/06/23 04:21:36;;;;;;;;;;;22.30;65.50;;;21.65;58.50;99925.38;10206964;28;816;-67
2023/06/23 04:26:31;;;;;;;;;;;22.30;65.60;;;21.65;58.47;99940.44;10206276;28;853;-67
2023/06/23 04:31:26;;;;;;;;;;;22.30;65.60;;;21.63;58.43;99937.84;10205684;28;1278;-67
2023/06/23 04:36:22;;;;;;;;;;;22.30;65.50;;;21.63;58.35;99942.31;10204617;28;1910;-67
2023/06/23 04:41:17;;;;;;;;;;;22.30;65.70;;;21.63;58.54;99945.81;10205679;28;897;-67
2023/06/23 04:46:14;;;;;;;;;;;22.20;65.60;;;21.61;58.48;99960.97;10204909;28;908;-67
2023/06/23 04:51:09;;;;;;;;;;;22.20;65.60;;;21.61;58.37;99965.41;10205281;28;910;-67
2023/06/23 04:56:06;;;;;;;;;;;22.20;65.70;;;21.60;58.51;99969.88;10204522;28;1910;-66
2023/06/23 05:01:01;;;;;;;;;;;22.20;65.60;;;21.61;58.58;99986.63;10204391;28;767;-67
2023/06/23 05:05:57;;;;;;;;;;;22.20;66.40;;;21.60;58.64;99985.78;10204353;28;764;-67
2023/06/23 05:10:53;;;;;;;;;;;22.20;66.60;;;21.60;58.65;99993.75;10204381;28;893;-71
2023/06/23 05:15:48;;;;;;;;;;;22.20;66.80;;;21.58;58.86;100000.91;10203866;28;1906;-69
2023/06/23 05:20:43;;;;;;;;;;;22.20;66.30;;;21.55;58.86;100005.53;10204030;28;932;-70
2023/06/23 05:25:39;;;;;;;;;;;22.20;65.90;;;21.53;58.74;100016.22;10203872;28;871;-70
2023/06/23 05:30:34;;;;;;;;;;;22.10;65.90;;;21.51;58.71;100026.09;10203817;28;833;-70
2023/06/23 05:35:30;;;;;;;;;;;22.10;65.70;;;21.50;58.65;100029.66;10204033;28;1918;-70
2023/06/23 05:40:25;;;;;;;;;;;22.10;65.70;;;21.49;58.67;100041.22;10203656;28;784;-69
2023/06/23 05:45:20;;;;;;;;;;;22.10;65.80;;;21.50;58.82;100042.06;10203565;28;771;-69
2023/06/23 05:50:16;;;;;;;;;;;22.10;66.40;;;21.50;58.86;100048.22;10203486;28;930;-68
2023/06/23 05:55:11;;;;;;;;;;;22.10;66.20;;;21.50;58.60;100052.69;10203524;28;1535;-70
2023/06/23 06:00:09;;;;;;;;;;;22.10;66.20;;;21.50;58.85;100063.28;10204053;28;875;-70
2023/06/23 06:05:07;;;;;;;;;;;22.10;66.10;;;21.47;58.74;100068.75;10203668;28;910;-70
2023/06/23 06:10:02;;;;;;;;;;;22.00;66.20;;;21.46;58.71;100083.81;10203053;28;883;-70
2023/06/23 06:14:58;;;;;;;;;;;22.00;66.00;;;21.43;58.68;100087.50;10206627;28;863;-70
2023/06/23 06:19:53;;;;;;;;;;;22.00;66.10;;;21.44;58.79;100097.16;10210949;28;1910;-69
2023/06/23 06:24:49;;;;;;;;;;;22.00;65.90;;;21.42;58.85;100103.47;10210228;28;901;-69
2023/06/23 06:29:44;;;;;;;;;;;22.00;66.20;;;21.42;58.71;100116.75;10209808;28;943;-70
2023/06/23 06:34:40;;;;;;;;;;;22.00;66.00;;;21.42;58.74;100130.00;10210807;28;1373;-71
2023/06/23 06:39:35;;;;;;;;;;;22.00;65.80;;;21.42;58.72;100136.16;10210198;28;2045;-71
2023/06/23 06:44:30;;;;;;;;;;;22.00;66.00;;;21.41;58.72;100142.41;10208916;28;960;-71
2023/06/23 06:49:26;;;;;;;;;;;22.00;66.20;;;21.39;58.84;100135.47;10209228;28;888;-71
2023/06/23 06:54:21;;;;;;;;;;;22.00;66.00;;;21.39;58.62;100146.94;10209124;28;871;-70
2023/06/23 06:59:17;;;;;;;;;;;21.90;65.80;;;21.39;58.65;100154.88;10208794;28;1907;-70
2023/06/23 07:04:12;;;;;;;;;;;21.90;66.40;;;21.40;58.76;100159.22;10208782;28;779;-70
2023/06/23 07:09:07;;;;;;;;;;;21.90;66.40;;;21.40;58.84;100176.94;10208619;28;853;-70
2023/06/23 07:14:04;;;;;;;;;;;21.90;66.40;;;21.40;58.54;100184.91;10208300;28;952;-67
2023/06/23 07:18:59;;;;;;;;;;;21.90;67.40;;;21.45;58.75;100182.88;10208219;28;1906;-68
2023/06/23 07:23:55;;;;;;;;;;;21.90;66.80;;;21.50;58.56;100180.84;10207045;28;901;-67
2023/06/23 07:28:50;;;;;;;;;;;22.00;67.00;;;21.52;58.57;100189.59;10207647;28;860;-67
2023/06/23 07:33:46;;;;;;;;;;;22.00;67.30;;;21.53;58.61;100190.44;10206838;28;1407;-67
2023/06/23 07:38:41;;;;;;;;;;;22.00;67.10;;;21.51;58.75;100202.91;10208118;28;1977;-67
2023/06/23 07:43:40;;;;;;;;;;;22.00;67.40;;;21.53;58.83;100206.34;10206552;28;1099;-68
2023/06/23 07:48:36;;;;;;;;;;;22.00;67.40;;;21.54;58.74;100224.00;10207580;28;808;-67
2023/06/23 07:53:31;;;;;;;;;;;22.00;67.50;;;21.52;58.69;100221.41;10208073;28;791;-67
2023/06/23 07:58:27;;;;;;;;;;;22.00;67.60;;;21.51;59.01;100232.97;10206637;28;1988;-67
2023/06/23 08:03:23;;;;;;;;;;;22.00;67.60;;;21.54;58.77;100239.91;10206332;28;775;-67
2023/06/23 08:08:18;;;;;;;;;;;22.00;67.70;;;21.52;58.77;100247.94;10206802;28;821;-67
2023/06/23 08:13:13;;;;;;;;;;;22.00;68.50;;;21.50;59.02;100241.84;10205688;28;909;-67
2023/06/23 08:18:09;;;;;;;;;;;22.00;67.80;;;21.51;58.98;100250.66;10206088;28;1971;-67
2023/06/23 08:23:04;;;;;;;;;;;22.00;67.70;;;21.51;59.08;100250.66;10206309;28;1030;-67
2023/06/23 08:28:00;;;;;;;;;;;22.00;67.80;;;21.51;59.12;100261.25;10206179;28;869;-67
2023/06/23 08:32:55;;;;;;;;;;;22.00;67.90;;;21.52;59.03;100269.16;10205058;28;1308;-67
2023/06/23 08:37:51;;;;;;;;;;;22.00;67.80;;;21.53;59.02;100268.22;10205930;28;1973;-67
2023/06/23 08:42:46;;;;;;;;;;;22.00;67.70;;;21.54;58.99;100279.69;10205086;28;891;-67
2023/06/23 08:47:42;;;;;;;;;;;22.00;67.70;;;21.56;58.94;100289.31;10205564;28;841;-67
2023/06/23 08:52:37;;;;;;;;;;;22.00;67.80;;;21.55;59.02;100295.53;10204945;28;800;-67
2023/06/23 08:57:34;;;;;;;;;;;22.00;67.70;;;21.56;58.96;100291.06;10205475;28;1906;-67
2023/06/23 09:02:29;;;;;;;;;;;22.00;67.70;;;21.55;59.15;100307.94;10205006;28;956;-68
2023/06/23 09:07:26;;;;;;;;;;;22.00;67.80;;;21.56;58.84;100313.19;10205960;28;953;-67
2023/06/23 09:12:24;;;;;;;;;;;22.00;68.50;;;21.61;58.79;100311.16;10204376;28;824;-67
2023/06/23 09:17:19;;;;;;;;;;;22.00;67.70;;;21.58;58.82;100319.22;10204157;28;1972;-65
2023/06/23 09:22:15;;;;;;;;;;;22.00;67.70;;;21.59;58.78;100323.63;10203922;28;844;-65
2023/06/23 09:27:10;;;;;;;;;;;22.00;67.80;;;21.62;58.73;100315.50;10203905;28;972;-66
2023/06/23 09:32:09;;;;;;;;;;;22.00;67.90;;;21.60;58.71;100329.78;10203391;28;1474;-67
2023/06/23 09:37:04;;;;;;;;;;;22.00;67.50;;;21.58;58.72;100342.25;10203592;28;1965;-68
2023/06/23 09:41:59;;;;;;;;;;;22.00;67.40;;;21.54;58.65;100346.88;10203002;28;929;-68
2023/06/23 09:46:55;;;;;;;;;;;22.00;67.30;;;21.54;58.73;100352.16;10203493;28;768;-68
2023/06/23 09:51:50;;;;;;;;;;;22.00;67.30;;;21.58;58.23;100351.06;10210938;28;865;-68
2023/06/23 09:56:46;;;;;;;;;;;22.00;66.80;;;21.59;58.17;100355.47;10211282;28;1906;-71
2023/06/23 10:01:43;;;;;;;;;;;22.00;66.50;;;21.55;58.47;100356.53;10211078;28;785;-68
2023/06/23 10:06:39;;;;;;;;;;;22.00;66.60;;;21.56;58.38;100346.78;10210989;28;863;-68
2023/06/23 10:11:34;;;;;;;;;;;22.00;66.60;;;21.56;58.45;100352.97;10210624;28;892;-68
2023/06/23 10:16:30;;;;;;;;;;;21.90;66.40;;;21.55;58.15;100355.69;10209945;28;1886;-68
2023/06/23 10:21:25;;;;;;;;;;;21.90;66.20;;;21.55;57.44;100353.88;10211001;28;767;-68
2023/06/23 10:26:21;;;;;;;;;;;22.00;65.50;;;21.53;57.82;100358.38;10210776;28;803;-68
2023/06/23 10:31:16;;;;;;;;;;;21.90;65.60;;;21.56;57.47;100360.03;10209749;28;1221;-68
2023/06/23 10:36:11;;;;;;;;;;;21.90;65.40;;;21.60;57.74;100353.66;10209922;28;1918;-68
2023/06/23 10:41:07;;;;;;;;;;;21.90;65.40;;;21.53;57.87;100355.75;10209595;28;767;-68
2023/06/23 10:46:04;;;;;;;;;;;21.90;65.50;;;21.61;57.67;100363.31;10210115;28;872;-67
2023/06/23 10:50:59;;;;;;;;;;;22.00;65.50;;;21.61;57.27;100369.50;10209851;28;948;-68
2023/06/23 10:55:58;;;;;;;;;;;22.00;65.10;;;21.58;57.42;100374.94;10208378;28;1964;-68
2023/06/23 11:00:53;;;;;;;;;;;22.00;64.90;;;21.59;56.88;100366.06;10208464;28;868;-68
2023/06/23 11:05:48;;;;;;;;;;;22.00;64.00;;;21.63;56.91;100366.75;10208859;28;1103;-68
2023/06/23 11:10:44;;;;;;;;;;;22.00;64.10;;;21.53;57.35;100376.97;10207802;28;926;-67
2023/06/23 11:15:39;;;;;;;;;;;22.00;65.10;;;21.61;56.79;100368.63;10208325;28;1910;-68
2023/06/23 11:20:35;;;;;;;;;;;22.00;64.00;;;21.63;56.94;100370.28;10208593;28;898;-67
2023/06/23 11:25:30;;;;;;;;;;;22.00;64.50;;;21.63;56.75;100372.94;10207950;28;791;-67
2023/06/23 11:30:25;;;;;;;;;;;22.00;62.90;;;21.64;56.83;100368.47;10207772;28;864;-67
2023/06/23 11:35:21;;;;;;;;;;;22.00;63.20;;;21.64;56.89;100365.81;10208501;28;1331;-67
2023/06/23 11:40:16;;;;;;;;;;;22.00;63.90;;;21.62;56.75;100359.75;10207906;28;1911;-67
2023/06/23 11:45:12;;;;;;;;;;;22.00;63.60;;;21.55;57.17;100364.50;10207250;28;784;-67
2023/06/23 11:50:07;;;;;;;;;;;22.00;63.40;;;21.62;56.69;100370.38;10206972;28;837;-67
2023/06/23 11:55:03;;;;;;;;;;;22.00;63.50;;;21.65;56.61;100368.41;10206152;28;822;-68
2023/06/23 11:59:59;;;;;;;;;;;22.00;63.30;;;21.67;56.77;100373.66;10206626;28;1906;-68
2023/06/23 12:04:54;;;;;;;;;;;22.00;63.40;;;21.58;56.99;100369.63;10205756;28;924;-68
2023/06/23 12:09:50;;;;;;;;;;;22.00;63.80;;;21.53;57.40;100376.97;10205502;28;819;-68
2023/06/23 12:14:45;;;;;;;;;;;22.00;64.10;;;21.62;56.92;100371.22;10205463;28;1106;-68
2023/06/23 12:19:42;;;;;;;;;;;22.00;64.10;;;21.67;56.85;100382.47;10205878;28;1887;-68
2023/06/23 12:24:37;;;;;;;;;;;22.00;63.60;;;21.70;56.78;100377.94;10205679;28;950;-68
2023/06/23 12:29:33;;;;;;;;;;;22.00;62.90;;;21.64;56.69;100379.09;10205093;28;932;-68
2023/06/23 12:34:28;;;;;;;;;;;22.00;63.50;;;21.64;56.99;100384.38;10205152;28;1170;-68
2023/06/23 12:39:26;;;;;;;;;;;22.00;63.70;;;21.70;56.64;100383.25;10205231;28;1914;-68
2023/06/23 12:44:22;;;;;;;;;;;22.00;63.50;;;21.71;56.51;100380.50;10205157;28;876;-68
2023/06/23 12:49:18;;;;;;;;;;;22.00;63.40;;;21.72;56.80;100382.25;10204399;28;767;-68
2023/06/23 12:54:14;;;;;;;;;;;22.00;63.70;;;21.63;56.80;100388.00;10205478;28;808;-68
2023/06/23 12:59:09;;;;;;;;;;;22.00;63.50;;;21.69;56.88;100377.06;10204643;28;1971;-72
2023/06/23 13:04:05;;;;;;;;;;;22.00;63.40;;;21.71;56.62;100377.84;10204168;28;780;-68
2023/06/23 13:09:00;;;;;;;;;;;22.10;63.60;;;21.72;56.59;100382.25;10204286;28;926;-68
2023/06/23 13:13:56;;;;;;;;;;;22.10;63.50;;;21.72;56.66;100381.34;10204586;28;972;-68
2023/06/23 13:18:51;;;;;;;;;;;22.10;63.60;;;21.71;56.54;100387.63;10204308;28;1966;-68
2023/06/23 13:23:46;;;;;;;;;;;22.10;63.20;;;21.72;56.66;100398.16;10204190;28;858;-68
2023/06/23 13:28:42;;;;;;;;;;;22.10;63.30;;;21.77;56.52;100392.59;10203654;28;888;-68
2023/06/23 13:33:37;;;;;;;;;;;22.10;63.40;;;21.80;56.59;100393.34;10203901;28;1105;-68
2023/06/23 13:38:33;;;;;;;;;;;22.10;63.50;;;21.70;56.81;100397.38;10203270;28;1918;-68
2023/06/23 13:43:28;;;;;;;;;;;22.10;63.50;;;21.75;56.64;100387.41;10203792;28;909;-68
2023/06/23 13:48:24;;;;;;;;;;;22.10;63.50;;;21.76;56.64;100388.25;10204507;28;905;-68
2023/06/23 13:53:20;;;;;;;;;;;22.10;63.50;;;21.77;56.69;100385.53;10203487;28;978;-68
2023/06/23 13:58:15;;;;;;;;;;;22.10;63.80;;;21.78;56.78;100386.38;10203535;28;1943;-68
2023/06/23 14:03:11;;;;;;;;;;;22.10;64.10;;;21.81;56.53;100386.22;10202980;28;784;-67
2023/06/23 14:08:06;;;;;;;;;;;22.10;64.00;;;21.65;57.11;100386.97;10203131;28;946;-68
2023/06/23 14:13:01;;;;;;;;;;;22.10;64.20;;;21.61;57.21;100390.75;10203533;28;878;-70
2023/06/23 14:17:57;;;;;;;;;;;22.10;64.30;;;21.60;57.18;100391.66;10200828;28;1974;-67
2023/06/23 14:22:53;;;;;;;;;;;22.10;64.00;;;21.60;57.25;100390.78;10202683;28;903;-67
2023/06/23 14:27:48;;;;;;;;;;;22.10;63.90;;;21.59;57.32;100397.91;10201575;28;1043;-67
2023/06/23 14:32:48;;;;;;;;;;;22.10;64.10;;;21.60;57.11;100391.66;10202090;28;1095;-67
2023/06/23 14:37:44;;;;;;;;;;;22.10;64.00;;;21.59;57.18;100389.09;10208217;28;1910;-67
2023/06/23 14:42:43;;;;;;;;;;;22.10;64.20;;;21.61;57.39;100401.34;10209551;28;786;-67
2023/06/23 14:47:40;;;;;;;;;;;22.10;64.40;;;21.58;57.39;100406.78;10209363;28;1162;-68
2023/06/23 14:52:35;;;;;;;;;;;22.10;64.50;;;21.60;57.40;100409.38;10209164;28;878;-67
2023/06/23 14:57:31;;;;;;;;;;;22.10;64.60;;;21.63;57.19;100410.06;10208984;28;1915;-67
2023/06/23 15:02:27;;;;;;;;;;;22.10;64.30;;;21.63;57.05;100420.69;10209029;28;928;-68
2023/06/23 15:07:22;;;;;;;;;;;22.10;64.20;;;21.62;57.30;100411.00;10208696;28;796;-67
2023/06/23 15:12:18;;;;;;;;;;;22.10;64.60;;;21.63;57.60;100411.88;10209632;28;899;-67
2023/06/23 15:17:13;;;;;;;;;;;22.10;64.80;;;21.62;57.77;100410.16;10208287;28;1940;-68
2023/06/23 15:22:09;;;;;;;;;;;22.10;64.90;;;21.61;57.66;100406.66;10208093;28;785;-67
2023/06/23 15:27:04;;;;;;;;;;;22.10;64.80;;;21.64;57.46;100416.22;10207892;28;890;-67
2023/06/23 15:31:59;;;;;;;;;;;22.10;64.70;;;21.62;57.42;100416.31;10207960;28;1154;-67
2023/06/23 15:36:55;;;;;;;;;;;22.10;64.70;;;21.64;57.28;100416.22;10207448;28;1973;-67
2023/06/23 15:41:50;;;;;;;;;;;22.10;64.60;;;21.63;57.24;100418.03;10207403;28;815;-68
2023/06/23 15:46:46;;;;;;;;;;;22.10;64.50;;;21.64;57.35;100416.22;10207135;28;831;-68
2023/06/23 15:51:43;;;;;;;;;;;22.10;64.40;;;21.66;57.37;100417.88;10207700;28;956;-68
2023/06/23 15:56:39;;;;;;;;;;;22.10;64.70;;;21.67;57.46;100414.31;10206671;28;1902;-67
2023/06/23 16:01:35;;;;;;;;;;;22.10;64.70;;;21.69;57.38;100424.81;10206492;28;989;-67
2023/06/23 16:06:30;;;;;;;;;;;22.20;64.80;;;21.70;57.48;100420.41;10207228;28;784;-67
2023/06/23 16:11:25;;;;;;;;;;;22.20;64.80;;;21.72;57.56;100419.41;10207486;28;786;-68
2023/06/23 16:16:21;;;;;;;;;;;22.20;65.00;;;21.72;57.38;100419.41;10206551;28;1918;-68
2023/06/23 16:21:18;;;;;;;;;;;22.20;65.00;;;21.73;57.42;100420.25;10205905;28;757;-68
2023/06/23 16:26:14;;;;;;;;;;;22.20;64.50;;;21.74;57.13;100427.25;10205164;28;874;-68
2023/06/23 16:31:09;;;;;;;;;;;22.20;64.60;;;21.74;57.26;100428.13;10205445;28;1228;-68
2023/06/23 16:36:05;;;;;;;;;;;22.20;64.40;;;21.75;57.44;100421.03;10205404;28;1914;-68
2023/06/23 16:41:00;;;;;;;;;;;22.20;64.60;;;21.75;57.12;100423.69;10205109;28;832;-68
2023/06/23 16:45:56;;;;;;;;;;;22.20;64.70;;;21.75;57.18;100421.88;10205643;28;856;-68
2023/06/23 16:50:52;;;;;;;;;;;22.20;64.70;;;21.76;57.33;100436.00;10204933;28;910;-68
2023/06/23 16:55:47;;;;;;;;;;;22.20;64.60;;;21.77;57.31;100440.38;10204599;28;1968;-68
2023/06/23 17:00:43;;;;;;;;;;;22.20;64.50;;;21.77;57.11;100437.72;10204305;28;795;-68
2023/06/23 17:05:38;;;;;;;;;;;22.20;64.60;;;21.77;57.26;100440.38;10204600;28;872;-65
2023/06/23 17:10:33;;;;;;;;;;;22.20;64.40;;;21.77;57.29;100445.69;10204856;28;948;-68
2023/06/23 17:15:29;;;;;;;;;;;22.20;64.60;;;21.77;57.15;100459.84;10204232;28;787;-68
2023/06/23 17:20:24;;;;;;;;;;;22.20;64.50;;;21.78;57.11;100447.41;10204600;28;1965;-67
2023/06/23 17:25:20;;;;;;;;;;;22.30;64.60;;;21.78;57.03;100450.06;10203925;28;782;-67
2023/06/23 17:30:17;;;;;;;;;;;22.20;64.40;;;21.78;57.26;100460.69;10203808;28;945;-68
2023/06/23 17:35:13;;;;;;;;;;;22.30;64.40;;;21.78;57.18;100466.84;10204063;28;1513;-67
2023/06/23 17:40:08;;;;;;;;;;;22.30;64.50;;;21.78;57.21;100463.34;10203569;28;1922;-68
2023/06/23 17:45:04;;;;;;;;;;;22.30;64.40;;;21.77;57.31;100466.91;10204151;28;859;-68
2023/06/23 17:49:59;;;;;;;;;;;22.30;64.50;;;21.78;57.40;100472.16;10203475;28;820;-68
2023/06/23 17:54:55;;;;;;;;;;;22.30;64.50;;;21.78;57.42;100466.84;10204243;28;866;-68
2023/06/23 17:59:50;;;;;;;;;;;22.30;64.40;;;21.79;57.36;100481.81;10203310;28;1907;-67
2023/06/23 18:04:45;;;;;;;;;;;22.30;64.50;;;21.78;57.35;100477.47;10203738;28;951;-68
2023/06/23 18:09:41;;;;;;;;;;;22.30;64.60;;;21.78;57.48;100474.81;10205022;28;830;-68
2023/06/23 18:14:36;;;;;;;;;;;22.30;64.60;;;21.79;57.43;100478.31;10211939;28;859;-68
2023/06/23 18:19:32;;;;;;;;;;;22.30;64.50;;;21.79;57.38;100486.28;10211119;28;1965;-67
2023/06/23 18:24:27;;;;;;;;;;;22.30;64.40;;;21.80;57.34;100485.34;10211067;28;779;-68
2023/06/23 18:29:22;;;;;;;;;;;22.30;64.40;;;21.79;57.35;100478.31;10210699;28;861;-68
2023/06/23 18:34:18;;;;;;;;;;;22.30;64.40;;;21.79;57.49;100483.63;10209667;28;1114;-68
2023/06/23 18:39:14;;;;;;;;;;;22.30;64.50;;;21.79;57.36;100484.47;10211007;28;1967;-67
2023/06/23 18:44:09;;;;;;;;;;;22.30;64.50;;;21.80;57.36;100482.72;10209692;28;924;-67
2023/06/23 18:49:04;;;;;;;;;;;22.30;64.60;;;21.81;57.40;100495.03;10209647;28;893;-68
2023/06/23 18:54:00;;;;;;;;;;;22.30;64.60;;;21.81;57.59;100503.00;10209824;28;782;-68
2023/06/23 18:58:55;;;;;;;;;;;22.30;64.70;;;21.83;57.50;100503.78;10208931;28;1967;-67
2023/06/23 19:03:51;;;;;;;;;;;22.30;64.80;;;21.82;57.61;100504.69;10208925;28;786;-68
2023/06/23 19:08:46;;;;;;;;;;;22.30;64.70;;;21.82;57.36;100504.69;10209306;28;784;-68
2023/06/23 19:13:41;;;;;;;;;;;22.30;64.80;;;21.82;57.47;100510.00;10208865;28;888;-68
2023/06/23 19:18:37;;;;;;;;;;;22.30;64.80;;;21.84;57.42;100514.31;10207992;28;1914;-67
2023/06/23 19:23:32;;;;;;;;;;;22.30;64.80;;;21.84;57.63;100521.41;10208003;28;898;-68
2023/06/23 19:28:28;;;;;;;;;;;22.30;65.70;;;21.84;57.57;100524.91;10208568;28;814;-67
2023/06/23 19:33:23;;;;;;;;;;;22.30;64.90;;;21.84;57.62;100522.28;10207573;28;1252;-68
2023/06/23 19:38:18;;;;;;;;;;;22.40;65.00;;;21.84;57.62;100538.19;10207553;28;1914;-66
2023/06/23 19:43:14;;;;;;;;;;;22.30;64.80;;;21.84;57.50;100534.69;10207494;28;851;-66
2023/06/23 19:48:09;;;;;;;;;;;22.40;64.70;;;21.79;57.22;100531.38;10207871;28;812;-66
2023/06/23 19:53:05;;;;;;;;;;;22.30;64.50;;;21.77;57.09;100538.56;10206389;28;1205;-66
2023/06/23 19:58:00;;;;;;;;;;;22.30;64.10;;;21.75;56.74;100537.78;10207375;28;1965;-67
2023/06/23 20:02:55;;;;;;;;;;;22.30;63.60;;;21.75;56.32;100540.44;10206656;28;793;-67
2023/06/23 20:07:51;;;;;;;;;;;22.30;63.10;;;21.74;56.40;100539.56;10205942;28;853;-67
2023/06/23 20:12:46;;;;;;;;;;;22.30;63.00;;;21.77;56.76;100547.41;10205788;28;830;-66
2023/06/23 20:17:42;;;;;;;;;;;22.30;63.40;;;21.78;56.88;100557.06;10206643;28;1962;-67
2023/06/23 20:22:37;;;;;;;;;;;22.30;63.40;;;21.78;56.96;100551.75;10205471;28;930;-67
2023/06/23 20:27:33;;;;;;;;;;;22.30;63.50;;;21.80;56.76;100559.66;10205433;28;879;-67
2023/06/23 20:32:28;;;;;;;;;;;22.30;63.50;;;21.79;57.04;100564.09;10205230;28;1359;-67
2023/06/23 20:37:23;;;;;;;;;;;22.40;63.80;;;21.80;56.83;100557.00;10205733;28;1906;-67
2023/06/23 20:42:19;;;;;;;;;;;22.40;63.70;;;21.80;57.03;100563.19;10205209;28;779;-67
2023/06/23 20:47:14;;;;;;;;;;;22.30;63.70;;;21.80;56.99;100564.97;10205677;28;831;-67
2023/06/23 20:52:10;;;;;;;;;;;22.40;63.80;;;21.80;56.92;100565.84;10205675;28;783;-67
2023/06/23 20:57:05;;;;;;;;;;;22.40;63.80;;;21.80;57.08;100559.66;10204754;28;1910;-66
2023/06/23 21:02:00;;;;;;;;;;;22.40;63.80;;;21.80;57.00;100557.00;10205043;28;1007;-67
2023/06/23 21:06:56;;;;;;;;;;;22.40;63.80;;;21.81;57.09;100556.91;10204504;28;891;-67
2023/06/23 21:11:51;;;;;;;;;;;22.40;63.80;;;21.80;57.01;100559.66;10204939;28;892;-67
2023/06/23 21:16:47;;;;;;;;;;;22.40;63.90;;;21.80;56.94;100557.88;10203974;28;1902;-67
2023/06/23 21:21:42;;;;;;;;;;;22.40;63.90;;;21.81;57.18;100570.19;10203506;28;893;-67
2023/06/23 21:26:38;;;;;;;;;;;22.40;63.90;;;21.81;57.07;100566.69;10204823;28;841;-67
2023/06/23 21:31:33;;;;;;;;;;;22.40;64.00;;;21.81;57.30;100567.53;10204317;28;1101;-66
2023/06/23 21:36:29;;;;;;;;;;;22.40;64.10;;;21.80;57.14;100564.97;10203751;28;1914;-67
2023/06/23 21:41:26;;;;;;;;;;;22.40;64.10;;;21.82;57.16;100568.38;10204396;28;847;-66
2023/06/23 21:46:21;;;;;;;;;;;22.40;64.10;;;21.81;57.08;100577.31;10209070;28;825;-67
2023/06/23 21:51:16;;;;;;;;;;;22.40;64.10;;;21.81;57.34;100577.31;10212040;28;797;-67
2023/06/23 21:56:12;;;;;;;;;;;22.40;64.10;;;21.81;57.20;100586.13;10211422;28;1967;-67
2023/06/23 22:01:08;;;;;;;;;;;22.40;64.10;;;21.81;57.16;100582.59;10211981;28;838;-67
2023/06/23 22:06:03;;;;;;;;;;;22.40;64.10;;;21.80;57.13;100589.72;10211747;28;951;-67
2023/06/23 22:10:58;;;;;;;;;;;22.40;64.20;;;21.80;57.21;100586.22;10210883;28;872;-67
2023/06/23 22:15:54;;;;;;;;;;;22.40;64.10;;;21.81;57.30;100582.59;10210393;28;1973;-67
2023/06/23 22:20:49;;;;;;;;;;;22.40;64.10;;;21.81;57.21;100587.91;10210685;28;858;-66
2023/06/23 22:25:45;;;;;;;;;;;22.40;64.10;;;21.80;57.33;100586.22;10210412;28;819;-67
2023/06/23 22:30:40;;;;;;;;;;;22.40;64.10;;;21.81;57.39;100585.25;10211202;28;1043;-67
2023/06/23 22:35:36;;;;;;;;;;;22.40;64.00;;;21.79;57.14;100585.31;10209334;28;1246;-67